createdAt,value
2018-07-14T00:00:27.458Z,97887.88
2018-07-14T00:02:56.710Z,97891.70
2018-07-14T00:05:25.946Z,97892.87
2018-07-14T00:07:55.248Z,97894.14
2018-07-14T00:10:23.955Z,97893.14
2018-07-14T00:12:52.898Z,97890.24
2018-07-14T00:15:22.180Z,97889.17
2018-07-14T00:17:51.255Z,97891.64
2018-07-14T00:20:20.390Z,97886.77
2018-07-14T00:22:49.632Z,97888.99
2018-07-14T00:25:22.822Z,97886.66
2018-07-14T00:27:52.095Z,97886.15
2018-07-14T00:30:21.143Z,97880.05
2018-07-14T00:32:50.209Z,97886.60
2018-07-14T00:35:19.466Z,97889.01
2018-07-14T00:37:48.371Z,97887.94
2018-07-14T00:40:17.555Z,97894.37
2018-07-14T00:42:46.860Z,97893.51
2018-07-14T00:45:16.000Z,97890.48
2018-07-14T00:47:45.261Z,97892.23
2018-07-14T00:50:14.461Z,97895.42
2018-07-14T00:52:43.454Z,97898.64
2018-07-14T00:55:12.391Z,97884.20
2018-07-14T00:57:41.386Z,97886.78
2018-07-14T01:00:10.586Z,97887.40
2018-07-14T01:02:39.642Z,97889.33
2018-07-14T01:05:08.819Z,97896.29
2018-07-14T01:07:37.848Z,97897.03
2018-07-14T01:10:06.733Z,97895.34
2018-07-14T01:12:35.897Z,97895.47
2018-07-14T01:15:05.147Z,97894.36
2018-07-14T01:17:34.287Z,97893.29
2018-07-14T01:20:03.409Z,97897.17
2018-07-14T01:22:32.269Z,97898.64
2018-07-14T01:25:01.227Z,97894.55
2018-07-14T01:27:30.029Z,97891.14
2018-07-14T01:29:59.229Z,97886.13
2018-07-14T01:35:06.454Z,97885.78
2018-07-14T01:37:35.486Z,97887.26
2018-07-14T01:40:04.460Z,97889.42
2018-07-14T01:42:33.671Z,97883.59
2018-07-14T01:45:02.671Z,97893.44
2018-07-14T01:47:31.762Z,97890.06
2018-07-14T01:50:00.849Z,97887.13
2018-07-14T01:52:30.012Z,97890.28
2018-07-14T01:54:59.151Z,97890.41
2018-07-14T01:57:28.344Z,97887.27
2018-07-14T01:59:57.486Z,97892.16
2018-07-14T02:02:26.458Z,97889.23
2018-07-14T02:04:55.666Z,97895.45
2018-07-14T02:07:24.938Z,97898.38
2018-07-14T02:09:54.046Z,97898.52
2018-07-14T02:12:23.168Z,97893.52
2018-07-14T02:14:52.219Z,97896.66
2018-07-14T02:17:21.349Z,97898.47
2018-07-14T02:19:50.111Z,97897.86
2018-07-14T02:22:19.361Z,97901.47
2018-07-14T02:24:48.424Z,97895.16
2018-07-14T02:27:17.587Z,97894.56
2018-07-14T02:29:46.913Z,97893.83
2018-07-14T02:32:16.184Z,97891.42
2018-07-14T02:34:45.409Z,97895.56
2018-07-14T02:37:14.231Z,97886.89
2018-07-14T02:39:43.298Z,97887.53
2018-07-14T02:42:12.531Z,97889.97
2018-07-14T02:44:41.610Z,97887.63
2018-07-14T02:47:10.690Z,97889.48
2018-07-14T02:49:39.778Z,97886.81
2018-07-14T02:52:08.780Z,97882.55
2018-07-14T02:54:37.707Z,97878.41
2018-07-14T02:57:06.650Z,97889.97
2018-07-14T02:59:35.840Z,97886.30
2018-07-14T03:02:05.000Z,97881.08
2018-07-14T03:04:34.137Z,97881.08
2018-07-14T03:07:03.279Z,97874.25
2018-07-14T03:09:32.599Z,97871.83
2018-07-14T03:12:01.356Z,97870.24
2018-07-14T03:14:30.519Z,97876.45
2018-07-14T03:16:59.564Z,97881.08
2018-07-14T03:19:28.862Z,97876.83
2018-07-14T03:21:58.051Z,97881.44
2018-07-14T03:24:27.308Z,97874.04
2018-07-14T03:26:56.083Z,97880.88
2018-07-14T03:29:25.120Z,97879.80
2018-07-14T03:31:54.307Z,97876.13
2018-07-14T03:34:23.329Z,97875.27
2018-07-14T03:36:52.498Z,97870.44
2018-07-14T03:39:21.509Z,97875.20
2018-07-14T03:41:50.776Z,97872.87
2018-07-14T03:44:19.802Z,97881.75
2018-07-14T03:46:48.657Z,97877.98
2018-07-14T03:49:17.903Z,97882.82
2018-07-14T03:51:47.243Z,97882.33
2018-07-14T03:54:16.335Z,97888.03
2018-07-14T03:56:45.417Z,97884.14
2018-07-14T03:59:14.578Z,97884.16
2018-07-14T04:01:43.819Z,97886.75
2018-07-14T04:04:12.875Z,97883.94
2018-07-14T04:06:42.103Z,97886.75
2018-07-14T04:09:11.260Z,97884.07
2018-07-14T04:11:40.618Z,97887.31
2018-07-14T04:14:09.358Z,97881.48
2018-07-14T04:16:38.434Z,97887.83
2018-07-14T04:19:07.777Z,97890.37
2018-07-14T04:21:36.958Z,97889.03
2018-07-14T04:24:06.240Z,97891.58
2018-07-14T04:26:35.545Z,97892.30
2018-07-14T04:29:04.589Z,97896.05
2018-07-14T04:31:33.874Z,97890.70
2018-07-14T04:34:02.691Z,97893.98
2018-07-14T04:36:31.906Z,97892.03
2018-07-14T04:39:01.052Z,97894.82
2018-07-14T04:41:30.246Z,97893.69
2018-07-14T04:43:59.303Z,97888.66
2018-07-14T04:46:28.426Z,97888.80
2018-07-14T04:48:57.734Z,97892.06
2018-07-14T04:51:26.885Z,97894.34
2018-07-14T04:53:56.213Z,97895.35
2018-07-14T04:56:25.111Z,97901.65
2018-07-14T04:58:54.262Z,97897.13
2018-07-14T05:01:23.208Z,97895.89
2018-07-14T05:03:52.434Z,97897.47
2018-07-14T05:06:21.707Z,97905.83
2018-07-14T05:08:50.926Z,97903.98
2018-07-14T05:11:19.688Z,97904.02
2018-07-14T05:13:48.626Z,97899.46
2018-07-14T05:16:17.788Z,97904.34
2018-07-14T05:18:46.843Z,97909.53
2018-07-14T05:21:15.804Z,97915.05
2018-07-14T05:23:44.886Z,97914.33
2018-07-14T05:26:13.937Z,97923.56
2018-07-14T05:28:43.296Z,97927.24
2018-07-14T05:31:12.144Z,97927.56
2018-07-14T05:33:41.248Z,97929.45
2018-07-14T05:36:10.271Z,97934.06
2018-07-14T05:38:39.506Z,97934.66
2018-07-14T05:41:08.748Z,97932.42
2018-07-14T05:43:38.091Z,97937.51
2018-07-14T05:46:06.850Z,97939.78
2018-07-14T05:48:35.839Z,97942.80
2018-07-14T05:51:04.940Z,97941.84
2018-07-14T05:53:34.183Z,97932.56
2018-07-14T05:56:03.220Z,97933.21
2018-07-14T05:58:32.410Z,97937.13
2018-07-14T06:01:01.679Z,97940.45
2018-07-14T06:03:30.520Z,97931.89
2018-07-14T06:05:59.498Z,97933.30
2018-07-14T06:08:28.732Z,97940.09
2018-07-14T06:10:57.722Z,97946.90
2018-07-14T06:13:26.795Z,97947.52
2018-07-14T06:15:56.127Z,97949.20
2018-07-14T06:18:25.178Z,97946.72
2018-07-14T06:20:54.115Z,97948.97
2018-07-14T06:23:23.350Z,97948.13
2018-07-14T06:25:52.444Z,97960.09
2018-07-14T06:28:21.518Z,97945.52
2018-07-14T06:30:50.490Z,97944.19
2018-07-14T06:33:19.721Z,97943.99
2018-07-14T06:35:48.850Z,97947.05
2018-07-14T06:38:17.757Z,97943.89
2018-07-14T06:40:46.734Z,97940.77
2018-07-14T06:43:15.710Z,97947.59
2018-07-14T06:45:44.883Z,97947.77
2018-07-14T06:48:13.911Z,97949.41
2018-07-14T06:50:43.040Z,97943.92
2018-07-14T06:53:11.854Z,97943.17
2018-07-14T06:55:40.791Z,97944.02
2018-07-14T06:58:09.969Z,97951.51
2018-07-14T07:00:39.275Z,97949.59
2018-07-14T07:03:08.562Z,97940.98
2018-07-14T07:05:37.661Z,97945.14
2018-07-14T07:08:06.860Z,97948.55
2018-07-14T07:10:36.739Z,97950.94
2018-07-14T07:13:05.561Z,97954.76
2018-07-14T07:15:34.696Z,97948.81
2018-07-14T07:18:03.718Z,97960.26
2018-07-14T07:20:32.988Z,97960.56
2018-07-14T07:23:02.189Z,97954.86
2018-07-14T07:25:31.108Z,97954.75
2018-07-14T07:28:00.200Z,97956.66
2018-07-14T07:30:29.504Z,97961.25
2018-07-14T07:32:58.592Z,97965.69
2018-07-14T07:35:27.671Z,97960.13
2018-07-14T07:37:57.063Z,97956.05
2018-07-14T07:40:26.466Z,97963.77
2018-07-14T07:42:56.025Z,97965.52
2018-07-14T07:45:25.302Z,97965.44
2018-07-14T07:47:54.118Z,97970.44
2018-07-14T07:50:23.052Z,97963.86
2018-07-14T07:52:52.116Z,97963.12
2018-07-14T07:55:21.387Z,97960.19
2018-07-14T07:57:50.592Z,97957.63
2018-07-14T08:00:19.878Z,97953.84
2018-07-14T08:02:49.118Z,97960.81
2018-07-14T08:05:18.211Z,97953.41
2018-07-14T08:07:47.200Z,97956.34
2018-07-14T08:10:16.232Z,97950.66
2018-07-14T08:12:45.343Z,97955.64
2018-07-14T08:15:14.494Z,97948.84
2018-07-14T08:17:43.792Z,97951.98
2018-07-14T08:20:13.044Z,97953.58
2018-07-14T08:22:42.116Z,97951.48
2018-07-14T08:25:11.228Z,97953.86
2018-07-14T08:27:40.419Z,97949.02
2018-07-14T08:30:09.660Z,97945.19
2018-07-14T08:32:38.790Z,97947.94
2018-07-14T08:35:08.392Z,97942.13
2018-07-14T08:37:38.776Z,97939.96
2018-07-14T08:40:07.977Z,97944.59
2018-07-14T08:42:36.803Z,97938.73
2018-07-14T08:45:06.026Z,97939.91
2018-07-14T08:47:34.957Z,97942.22
2018-07-14T08:50:04.052Z,97946.38
2018-07-14T08:52:32.914Z,97935.02
2018-07-14T08:55:02.194Z,97932.76
2018-07-14T08:57:30.983Z,97927.16
2018-07-14T09:00:00.128Z,97923.00
2018-07-14T09:02:29.326Z,97931.01
2018-07-14T09:04:58.466Z,97932.40
2018-07-14T09:07:27.633Z,97931.09
2018-07-14T09:09:56.454Z,97930.65
2018-07-14T09:12:25.479Z,97933.99
2018-07-14T09:14:54.649Z,97928.59
2018-07-14T09:17:23.697Z,97928.03
2018-07-14T09:19:52.578Z,97929.47
2018-07-14T09:22:21.841Z,97930.66
2018-07-14T09:24:51.109Z,97933.06
2018-07-14T09:27:20.350Z,97930.49
2018-07-14T09:29:49.572Z,97925.17
2018-07-14T09:32:18.700Z,97932.85
2018-07-14T09:34:47.809Z,97921.70
2018-07-14T09:37:16.620Z,97914.05
2018-07-14T09:39:45.898Z,97926.98
2018-07-14T09:42:14.730Z,97920.97
2018-07-14T09:44:43.777Z,97921.83
2018-07-14T09:47:13.024Z,97921.20
2018-07-14T09:49:42.097Z,97920.36
2018-07-14T09:52:11.309Z,97928.05
2018-07-14T09:54:40.662Z,97925.94
2018-07-14T09:57:09.873Z,97929.12
2018-07-14T09:59:39.095Z,97916.29
2018-07-14T10:02:08.790Z,97916.37
2018-07-14T10:04:37.791Z,97919.77
2018-07-14T10:07:06.980Z,97914.67
2018-07-14T10:09:36.084Z,97914.16
2018-07-14T10:12:05.332Z,97922.88
2018-07-14T10:14:34.172Z,97919.44
2018-07-14T10:17:03.187Z,97907.13
2018-07-14T10:19:32.231Z,97909.50
2018-07-14T10:22:01.554Z,97908.06
2018-07-14T10:24:30.769Z,97903.91
2018-07-14T10:26:59.611Z,97912.15
2018-07-14T10:29:28.626Z,97903.25
2018-07-14T10:31:57.795Z,97911.67
2018-07-14T10:34:26.930Z,97918.73
2018-07-14T10:36:56.013Z,97920.98
2018-07-14T10:39:25.272Z,97921.50
2018-07-14T10:41:54.263Z,97915.95
2018-07-14T10:44:23.354Z,97924.88
2018-07-14T10:46:52.240Z,97920.32
2018-07-14T10:49:21.156Z,97916.77
2018-07-14T10:51:50.370Z,97912.35
2018-07-14T10:54:19.127Z,97908.64
2018-07-14T10:56:48.457Z,97903.11
2018-07-14T10:59:19.414Z,97902.34
2018-07-14T11:01:48.512Z,97891.37
2018-07-14T11:04:17.408Z,97890.95
2018-07-14T11:06:47.585Z,97894.89
2018-07-14T11:09:17.000Z,97888.16
2018-07-14T11:11:46.470Z,97884.45
2018-07-14T11:14:15.778Z,97878.35
2018-07-14T11:16:44.971Z,97879.47
2018-07-14T11:19:14.350Z,97878.00
2018-07-14T11:21:43.389Z,97873.27
2018-07-14T11:24:12.181Z,97877.98
2018-07-14T11:26:41.282Z,97877.05
2018-07-14T11:29:10.301Z,97880.67
2018-07-14T11:31:39.576Z,97878.16
2018-07-14T11:34:08.756Z,97872.55
2018-07-14T11:36:37.929Z,97872.28
2018-07-14T11:39:07.198Z,97870.69
2018-07-14T11:41:36.108Z,97864.39
2018-07-14T11:44:05.588Z,97861.61
2018-07-14T11:46:34.459Z,97864.63
2018-07-14T11:49:03.738Z,97852.94
2018-07-14T11:51:32.924Z,97859.58
2018-07-14T11:54:02.048Z,97854.38
2018-07-14T11:56:31.287Z,97856.83
2018-07-14T11:59:00.320Z,97856.88
2018-07-14T12:01:29.691Z,97855.98
2018-07-14T12:03:58.625Z,97847.51
2018-07-14T12:06:27.496Z,97852.28
2018-07-14T12:08:56.508Z,97845.27
2018-07-14T12:11:25.390Z,97842.38
2018-07-14T12:13:54.531Z,97843.59
2018-07-14T12:16:23.691Z,97847.43
2018-07-14T12:18:52.571Z,97846.36
2018-07-14T12:21:21.810Z,97855.33
2018-07-14T12:23:51.024Z,97847.80
2018-07-14T12:26:20.203Z,97849.16
2018-07-14T12:28:49.762Z,97850.90
2018-07-14T12:31:19.134Z,97842.08
2018-07-14T12:33:48.358Z,97837.42
2018-07-14T12:36:18.333Z,97842.02
2018-07-14T12:38:47.318Z,97839.88
2018-07-14T12:41:16.481Z,97834.84
2018-07-14T12:43:45.647Z,97838.92
2018-07-14T12:46:14.499Z,97833.19
2018-07-14T12:48:43.635Z,97838.05
2018-07-14T12:51:12.588Z,97838.30
2018-07-14T12:53:41.433Z,97827.42
2018-07-14T12:56:10.589Z,97821.98
2018-07-14T12:58:39.703Z,97820.95
2018-07-14T13:01:09.010Z,97823.46
2018-07-14T13:03:38.271Z,97817.16
2018-07-14T13:06:07.726Z,97815.03
2018-07-14T13:08:36.915Z,97811.75
2018-07-14T13:11:05.976Z,97811.59
2018-07-14T13:13:35.351Z,97813.05
2018-07-14T13:16:04.657Z,97805.59
2018-07-14T13:18:33.467Z,97808.59
2018-07-14T13:21:02.586Z,97808.56
2018-07-14T13:23:31.409Z,97811.98
2018-07-14T13:26:00.531Z,97805.84
2018-07-14T13:28:29.667Z,97799.13
2018-07-14T13:30:58.373Z,97799.41
2018-07-14T13:33:27.222Z,97799.05
2018-07-14T13:35:56.150Z,97806.66
2018-07-14T13:38:25.313Z,97805.67
2018-07-14T13:40:54.299Z,97798.91
2018-07-14T13:43:23.039Z,97805.75
2018-07-14T13:45:51.903Z,97793.45
2018-07-14T13:48:21.018Z,97788.30
2018-07-14T13:50:50.141Z,97792.36
2018-07-14T13:53:19.174Z,97793.70
2018-07-14T13:55:48.451Z,97789.17
2018-07-14T13:58:17.336Z,97787.84
2018-07-14T14:00:46.164Z,97784.17
2018-07-14T14:03:15.284Z,97779.78
2018-07-14T14:05:44.649Z,97777.95
2018-07-14T14:08:13.838Z,97770.59
2018-07-14T14:10:43.142Z,97775.50
2018-07-14T14:13:12.204Z,97770.71
2018-07-14T14:15:41.330Z,97767.45
2018-07-14T14:18:10.446Z,97767.34
2018-07-14T14:20:39.770Z,97767.30
2018-07-14T14:23:08.980Z,97768.04
2018-07-14T14:25:38.206Z,97757.92
2018-07-14T14:28:07.708Z,97757.89
2018-07-14T14:30:37.175Z,97756.48
2018-07-14T14:33:06.313Z,97759.39
2018-07-14T14:35:35.038Z,97761.16
2018-07-14T14:38:04.358Z,97760.28
2018-07-14T14:40:33.211Z,97757.20
2018-07-14T14:43:02.287Z,97754.27
2018-07-14T14:45:31.352Z,97750.38
2018-07-14T14:48:00.599Z,97736.24
2018-07-14T14:50:29.722Z,97747.92
2018-07-14T14:52:58.992Z,97745.86
2018-07-14T14:55:34.366Z,97730.81
2018-07-14T14:58:03.826Z,97738.58
2018-07-14T15:00:33.070Z,97730.16
2018-07-14T15:03:02.198Z,97729.73
2018-07-14T15:05:31.403Z,97734.83
2018-07-14T15:08:00.241Z,97729.87
2018-07-14T15:10:29.440Z,97734.16
2018-07-14T15:12:58.652Z,97732.97
2018-07-14T15:15:27.870Z,97728.02
2018-07-14T15:17:56.865Z,97732.23
2018-07-14T15:20:26.016Z,97730.31
2018-07-14T15:22:55.262Z,97729.99
2018-07-14T15:25:24.030Z,97730.52
2018-07-14T15:27:52.902Z,97730.84
2018-07-14T15:30:22.266Z,97726.25
2018-07-14T15:32:51.559Z,97726.90
2018-07-14T15:35:20.594Z,97722.17
2018-07-14T15:37:49.898Z,97713.89
2018-07-14T15:40:19.169Z,97715.14
2018-07-14T15:42:48.362Z,97719.59
2018-07-14T15:45:17.205Z,97713.56
2018-07-14T15:47:46.342Z,97717.13
2018-07-14T15:50:15.571Z,97721.08
2018-07-14T15:52:44.738Z,97713.98
2018-07-14T15:55:14.096Z,97715.06
2018-07-14T15:57:43.238Z,97722.33
2018-07-14T16:00:12.516Z,97720.79
2018-07-14T16:02:41.330Z,97718.06
2018-07-14T16:05:10.668Z,97722.63
2018-07-14T16:07:39.974Z,97715.88
2018-07-14T16:10:09.212Z,97724.41
2018-07-14T16:12:38.409Z,97722.92
2018-07-14T16:15:07.311Z,97721.92
2018-07-14T16:17:36.397Z,97730.42
2018-07-14T16:20:05.750Z,97723.66
2018-07-14T16:22:34.877Z,97724.83
2018-07-14T16:25:04.101Z,97729.41
2018-07-14T16:27:33.358Z,97731.43
2018-07-14T16:30:02.542Z,97733.80
2018-07-14T16:32:31.304Z,97734.14
2018-07-14T16:35:00.627Z,97738.73
2018-07-14T16:37:29.878Z,97742.63
2018-07-14T16:39:58.981Z,97738.34
2018-07-14T16:42:28.167Z,97737.17
2018-07-14T16:44:57.010Z,97734.13
2018-07-14T16:47:26.245Z,97732.10
2018-07-14T16:49:55.744Z,97735.27
2018-07-14T16:52:24.920Z,97733.41
2018-07-14T16:54:53.994Z,97734.75
2018-07-14T16:57:22.914Z,97731.88
2018-07-14T16:59:52.033Z,97735.00
2018-07-14T17:02:21.029Z,97737.50
2018-07-14T17:04:50.076Z,97750.09
2018-07-14T17:07:19.111Z,97742.27
2018-07-14T17:09:48.290Z,97740.87
2018-07-14T17:12:17.133Z,97740.77
2018-07-14T17:14:45.882Z,97745.76
2018-07-14T17:17:15.103Z,97740.66
2018-07-14T17:19:44.223Z,97744.99
2018-07-14T17:22:13.266Z,97751.52
2018-07-14T17:24:42.542Z,97750.83
2018-07-14T17:27:11.670Z,97751.80
2018-07-14T17:29:40.802Z,97748.70
2018-07-14T17:32:09.913Z,97748.94
2018-07-14T17:34:38.954Z,97747.60
2018-07-14T17:37:08.203Z,97751.31
2018-07-14T17:39:37.422Z,97742.38
2018-07-14T17:42:06.562Z,97738.22
2018-07-14T17:44:35.820Z,97750.30
2018-07-14T17:47:04.711Z,97750.55
2018-07-14T17:49:33.862Z,97751.69
2018-07-14T17:52:02.799Z,97760.45
2018-07-14T17:54:32.150Z,97760.09
2018-07-14T17:57:01.520Z,97762.89
2018-07-14T17:59:30.694Z,97755.63
2018-07-14T18:02:00.035Z,97755.23
2018-07-14T18:04:29.079Z,97763.59
2018-07-14T18:06:58.003Z,97763.70
2018-07-14T18:09:27.265Z,97763.97
2018-07-14T18:11:55.966Z,97770.64
2018-07-14T18:14:24.759Z,97775.87
2018-07-14T18:16:53.764Z,97774.52
2018-07-14T18:19:22.902Z,97773.65
2018-07-14T18:21:52.022Z,97772.89
2018-07-14T18:24:21.123Z,97778.41
2018-07-14T18:26:50.452Z,97774.17
2018-07-14T18:29:19.609Z,97779.90
2018-07-14T18:31:48.927Z,97786.69
2018-07-14T18:34:17.778Z,97789.89
2018-07-14T18:36:46.872Z,97790.77
2018-07-14T18:39:16.327Z,97801.05
2018-07-14T18:41:45.452Z,97800.94
2018-07-14T18:44:14.712Z,97813.97
2018-07-14T18:46:44.125Z,97817.63
2018-07-14T18:49:13.398Z,97829.31
2018-07-14T18:51:42.710Z,97826.89
2018-07-14T18:54:11.915Z,97831.44
2018-07-14T18:56:40.782Z,97823.23
2018-07-14T18:59:10.925Z,97826.06
2018-07-14T19:01:40.123Z,97831.37
2018-07-14T19:04:09.449Z,97834.84
2018-07-14T19:06:39.024Z,97835.70
2018-07-14T19:09:07.923Z,97836.63
2018-07-14T19:11:37.040Z,97843.34
2018-07-14T19:14:06.018Z,97841.22
2018-07-14T19:16:34.814Z,97838.19
2018-07-14T19:19:04.002Z,97836.43
2018-07-14T19:21:33.035Z,97838.59
2018-07-14T19:24:02.339Z,97850.27
2018-07-14T19:26:31.298Z,97846.59
2018-07-14T19:29:00.484Z,97849.71
2018-07-14T19:31:29.753Z,97850.11
2018-07-14T19:33:58.641Z,97854.92
2018-07-14T19:36:27.811Z,97847.01
2018-07-14T19:38:57.068Z,97855.62
2018-07-14T19:41:26.255Z,97861.14
2018-07-14T19:43:55.423Z,97861.91
2018-07-14T19:46:24.620Z,97864.11
2018-07-14T19:48:53.439Z,97859.73
2018-07-14T19:51:22.381Z,97861.08
2018-07-14T19:53:51.329Z,97863.97
2018-07-14T19:56:20.630Z,97863.90
2018-07-14T19:58:49.792Z,97862.98
2018-07-14T20:01:18.766Z,97862.13
2018-07-14T20:03:48.220Z,97866.16
2018-07-14T20:06:17.301Z,97865.79
2018-07-14T20:08:46.585Z,97866.87
2018-07-14T20:11:15.539Z,97859.04
2018-07-14T20:13:44.576Z,97860.79
2018-07-14T20:16:13.539Z,97860.56
2018-07-14T20:18:42.710Z,97859.17
2018-07-14T20:21:11.878Z,97857.89
2018-07-14T20:23:41.034Z,97859.45
2018-07-14T20:26:09.851Z,97864.02
2018-07-14T20:28:38.950Z,97859.23
2018-07-14T20:31:08.118Z,97864.52
2018-07-14T20:33:37.331Z,97866.37
2018-07-14T20:36:06.658Z,97864.17
2018-07-14T20:38:35.710Z,97869.41
2018-07-14T20:41:05.030Z,97866.98
2018-07-14T20:43:34.140Z,97864.78
2018-07-14T20:46:02.990Z,97869.78
2018-07-14T20:48:31.778Z,97868.53
2018-07-14T20:51:01.003Z,97868.85
2018-07-14T20:53:30.092Z,97872.30
2018-07-14T20:55:58.955Z,97871.75
2018-07-14T20:58:28.170Z,97876.45
2018-07-14T21:00:57.190Z,97877.17
2018-07-14T21:03:26.481Z,97876.90
2018-07-14T21:05:56.485Z,97878.20
2018-07-14T21:08:25.776Z,97887.20
2018-07-14T21:10:54.858Z,97882.80
2018-07-14T21:13:24.151Z,97880.83
2018-07-14T21:15:53.103Z,97876.53
2018-07-14T21:18:22.398Z,97882.61
2018-07-14T21:20:51.449Z,97884.39
2018-07-14T21:23:20.875Z,97885.02
2018-07-14T21:25:50.128Z,97880.73
2018-07-14T21:28:19.358Z,97878.24
2018-07-14T21:30:48.502Z,97881.06
2018-07-14T21:33:17.703Z,97878.29
2018-07-14T21:35:47.024Z,97880.16
2018-07-14T21:38:16.085Z,97879.09
2018-07-14T21:40:45.096Z,97873.53
2018-07-14T21:43:14.082Z,97869.69
2018-07-14T21:45:43.298Z,97870.12
2018-07-14T21:48:12.166Z,97868.69
2018-07-14T21:50:41.039Z,97865.48
2018-07-14T21:53:09.681Z,97866.17
2018-07-14T21:55:38.909Z,97860.13
2018-07-14T21:58:08.248Z,97859.13
2018-07-14T22:00:42.366Z,97858.78
2018-07-14T22:03:11.430Z,97866.49
2018-07-14T22:05:40.659Z,97866.73
2018-07-14T22:08:09.703Z,97870.95
2018-07-14T22:10:38.944Z,97864.53
2018-07-14T22:13:08.197Z,97872.00
2018-07-14T22:15:37.476Z,97872.85
2018-07-14T22:18:06.720Z,97863.52
2018-07-14T22:20:36.002Z,97869.05
2018-07-14T22:23:05.348Z,97860.22
2018-07-14T22:25:34.608Z,97865.17
2018-07-14T22:28:03.810Z,97867.06
2018-07-14T22:30:33.105Z,97871.60
2018-07-14T22:33:02.331Z,97873.22
2018-07-14T22:35:31.370Z,97868.64
2018-07-14T22:38:00.358Z,97868.13
2018-07-14T22:40:29.635Z,97860.97
2018-07-14T22:42:58.875Z,97858.19
2018-07-14T22:45:28.180Z,97867.91
2018-07-14T22:47:57.575Z,97865.50
2018-07-14T22:50:26.806Z,97861.38
2018-07-14T22:52:56.139Z,97856.08
2018-07-14T22:55:25.286Z,97857.28
2018-07-14T22:57:54.288Z,97860.69
2018-07-14T23:00:23.406Z,97867.73
2018-07-14T23:02:52.560Z,97861.75
2018-07-14T23:05:21.804Z,97856.67
2018-07-14T23:07:50.751Z,97862.39
2018-07-14T23:10:19.867Z,97868.23
2018-07-14T23:12:48.799Z,97868.61
2018-07-14T23:15:18.113Z,97867.14
2018-07-14T23:17:47.311Z,97867.89
2018-07-14T23:20:16.533Z,97869.95
2018-07-14T23:22:45.702Z,97864.48
2018-07-14T23:25:14.943Z,97861.22
2018-07-14T23:27:44.092Z,97868.05
2018-07-14T23:30:13.112Z,97862.48
2018-07-14T23:32:42.290Z,97863.09
2018-07-14T23:35:11.258Z,97859.08
2018-07-14T23:37:40.492Z,97857.73
2018-07-14T23:40:09.679Z,97859.31
2018-07-14T23:42:38.866Z,97857.24
2018-07-14T23:45:08.044Z,97857.11
2018-07-14T23:47:36.981Z,97860.88
2018-07-14T23:50:06.084Z,97859.06
2018-07-14T23:52:35.289Z,97858.72
2018-07-14T23:55:04.348Z,97857.87
2018-07-14T23:57:33.442Z,97860.03
